sensor_id;sensor_type;location;lat;lon;timestamp;P1;durP1;ratioP1;P2;durP2;ratioP2
78903;SDS011;68291;49.602;8.722;2023-07-31T00:04:42;3.67;;;2.17;;
78903;SDS011;68291;49.602;8.722;2023-07-31T00:07:22;4.87;;;2.00;;
78903;SDS011;68291;49.602;8.722;2023-07-31T00:10:07;5.07;;;2.13;;
78903;SDS011;68291;49.602;8.722;2023-07-31T00:12:52;5.03;;;1.80;;
78903;SDS011;68291;49.602;8.722;2023-07-31T00:15:31;3.80;;;1.80;;
78903;SDS011;68291;49.602;8.722;2023-07-31T00:18:23;4.27;;;1.73;;
78903;SDS011;68291;49.602;8.722;2023-07-31T00:20:54;4.53;;;1.70;;
78903;SDS011;68291;49.602;8.722;2023-07-31T00:23:47;4.07;;;1.90;;
78903;SDS011;68291;49.602;8.722;2023-07-31T00:26:26;4.83;;;2.00;;
78903;SDS011;68291;49.602;8.722;2023-07-31T00:29:22;3.10;;;1.87;;
78903;SDS011;68291;49.602;8.722;2023-07-31T00:32:14;4.57;;;2.00;;
78903;SDS011;68291;49.602;8.722;2023-07-31T00:35:07;3.87;;;1.80;;
78903;SDS011;68291;49.602;8.722;2023-07-31T00:37:42;3.50;;;2.37;;
78903;SDS011;68291;49.602;8.722;2023-07-31T00:40:20;4.60;;;2.10;;
78903;SDS011;68291;49.602;8.722;2023-07-31T00:42:51;3.80;;;2.13;;
78903;SDS011;68291;49.602;8.722;2023-07-31T00:45:37;6.30;;;2.00;;
78903;SDS011;68291;49.602;8.722;2023-07-31T00:48:13;5.07;;;2.10;;
78903;SDS011;68291;49.602;8.722;2023-07-31T00:50:53;3.50;;;2.30;;
78903;SDS011;68291;49.602;8.722;2023-07-31T00:53:37;4.33;;;2.17;;
78903;SDS011;68291;49.602;8.722;2023-07-31T00:56:13;3.53;;;2.00;;
78903;SDS011;68291;49.602;8.722;2023-07-31T00:58:48;4.73;;;2.10;;
78903;SDS011;68291;49.602;8.722;2023-07-31T01:01:45;2.83;;;1.90;;
78903;SDS011;68291;49.602;8.722;2023-07-31T01:07:35;5.33;;;2.10;;
78903;SDS011;68291;49.602;8.722;2023-07-31T01:10:30;3.00;;;2.00;;
78903;SDS011;68291;49.602;8.722;2023-07-31T01:13:30;6.67;;;2.33;;
78903;SDS011;68291;49.602;8.722;2023-07-31T01:16:08;5.53;;;2.10;;
78903;SDS011;68291;49.602;8.722;2023-07-31T01:18:53;4.77;;;2.43;;
78903;SDS011;68291;49.602;8.722;2023-07-31T01:21:52;4.70;;;2.10;;
78903;SDS011;68291;49.602;8.722;2023-07-31T01:25:03;7.17;;;2.63;;
78903;SDS011;68291;49.602;8.722;2023-07-31T01:27:58;4.80;;;2.20;;
78903;SDS011;68291;49.602;8.722;2023-07-31T01:30:52;5.77;;;2.00;;
78903;SDS011;68291;49.602;8.722;2023-07-31T01:33:33;4.97;;;2.53;;
78903;SDS011;68291;49.602;8.722;2023-07-31T01:36:08;5.93;;;2.73;;
78903;SDS011;68291;49.602;8.722;2023-07-31T01:38:43;4.80;;;2.30;;
78903;SDS011;68291;49.602;8.722;2023-07-31T01:41:16;4.73;;;2.03;;
78903;SDS011;68291;49.602;8.722;2023-07-31T01:44:14;4.63;;;2.37;;
78903;SDS011;68291;49.602;8.722;2023-07-31T01:47:08;3.93;;;2.00;;
78903;SDS011;68291;49.602;8.722;2023-07-31T01:50:04;5.07;;;2.30;;
78903;SDS011;68291;49.602;8.722;2023-07-31T01:52:44;4.90;;;2.23;;
78903;SDS011;68291;49.602;8.722;2023-07-31T01:55:35;6.47;;;2.30;;
78903;SDS011;68291;49.602;8.722;2023-07-31T01:58:40;6.90;;;2.30;;
78903;SDS011;68291;49.602;8.722;2023-07-31T02:01:31;4.70;;;2.00;;
78903;SDS011;68291;49.602;8.722;2023-07-31T02:04:02;4.53;;;2.30;;
78903;SDS011;68291;49.602;8.722;2023-07-31T02:06:49;3.53;;;2.00;;
78903;SDS011;68291;49.602;8.722;2023-07-31T02:09:39;4.73;;;2.40;;
78903;SDS011;68291;49.602;8.722;2023-07-31T02:12:22;4.10;;;2.37;;
78903;SDS011;68291;49.602;8.722;2023-07-31T02:15:07;5.00;;;2.27;;
78903;SDS011;68291;49.602;8.722;2023-07-31T02:21:06;5.10;;;2.20;;
78903;SDS011;68291;49.602;8.722;2023-07-31T02:23:49;3.87;;;2.17;;
78903;SDS011;68291;49.602;8.722;2023-07-31T02:26:30;5.57;;;2.63;;
78903;SDS011;68291;49.602;8.722;2023-07-31T02:29:08;4.13;;;2.20;;
78903;SDS011;68291;49.602;8.722;2023-07-31T02:31:40;6.03;;;2.20;;
78903;SDS011;68291;49.602;8.722;2023-07-31T02:34:18;2.93;;;2.20;;
78903;SDS011;68291;49.602;8.722;2023-07-31T02:37:03;5.73;;;2.43;;
78903;SDS011;68291;49.602;8.722;2023-07-31T02:39:43;5.87;;;2.40;;
78903;SDS011;68291;49.602;8.722;2023-07-31T02:42:14;4.53;;;2.10;;
78903;SDS011;68291;49.602;8.722;2023-07-31T02:44:47;5.30;;;2.50;;
78903;SDS011;68291;49.602;8.722;2023-07-31T02:47:21;3.93;;;2.30;;
78903;SDS011;68291;49.602;8.722;2023-07-31T02:53:30;4.17;;;1.80;;
78903;SDS011;68291;49.602;8.722;2023-07-31T02:56:16;5.17;;;2.00;;
78903;SDS011;68291;49.602;8.722;2023-07-31T02:59:00;3.17;;;2.33;;
78903;SDS011;68291;49.602;8.722;2023-07-31T03:01:32;5.30;;;2.30;;
78903;SDS011;68291;49.602;8.722;2023-07-31T03:04:20;3.97;;;2.20;;
78903;SDS011;68291;49.602;8.722;2023-07-31T03:06:57;4.60;;;2.30;;
78903;SDS011;68291;49.602;8.722;2023-07-31T03:09:37;3.97;;;2.47;;
78903;SDS011;68291;49.602;8.722;2023-07-31T03:12:16;4.53;;;2.20;;
78903;SDS011;68291;49.602;8.722;2023-07-31T03:14:47;4.77;;;2.20;;
78903;SDS011;68291;49.602;8.722;2023-07-31T03:17:19;5.93;;;2.20;;
78903;SDS011;68291;49.602;8.722;2023-07-31T03:19:50;5.37;;;2.33;;
78903;SDS011;68291;49.602;8.722;2023-07-31T03:25:57;9.87;;;2.33;;
78903;SDS011;68291;49.602;8.722;2023-07-31T03:28:51;4.23;;;2.20;;
78903;SDS011;68291;49.602;8.722;2023-07-31T03:31:47;5.57;;;2.53;;
78903;SDS011;68291;49.602;8.722;2023-07-31T03:34:32;5.73;;;2.47;;
78903;SDS011;68291;49.602;8.722;2023-07-31T03:37:10;6.53;;;2.40;;
78903;SDS011;68291;49.602;8.722;2023-07-31T03:43:05;6.00;;;2.47;;
78903;SDS011;68291;49.602;8.722;2023-07-31T03:45:46;3.83;;;2.00;;
78903;SDS011;68291;49.602;8.722;2023-07-31T03:48:37;5.80;;;2.40;;
78903;SDS011;68291;49.602;8.722;2023-07-31T03:51:28;4.33;;;2.33;;
78903;SDS011;68291;49.602;8.722;2023-07-31T03:54:01;5.27;;;2.37;;
78903;SDS011;68291;49.602;8.722;2023-07-31T03:57:04;6.67;;;2.57;;
78903;SDS011;68291;49.602;8.722;2023-07-31T03:59:52;3.73;;;2.27;;
78903;SDS011;68291;49.602;8.722;2023-07-31T04:02:52;5.33;;;2.23;;
78903;SDS011;68291;49.602;8.722;2023-07-31T04:05:31;4.50;;;2.50;;
78903;SDS011;68291;49.602;8.722;2023-07-31T04:08:04;5.73;;;2.67;;
78903;SDS011;68291;49.602;8.722;2023-07-31T04:10:46;5.93;;;2.67;;
78903;SDS011;68291;49.602;8.722;2023-07-31T04:13:28;5.07;;;2.80;;
78903;SDS011;68291;49.602;8.722;2023-07-31T04:16:07;4.20;;;2.60;;
78903;SDS011;68291;49.602;8.722;2023-07-31T04:19:03;5.57;;;2.67;;
78903;SDS011;68291;49.602;8.722;2023-07-31T04:21:50;5.47;;;2.57;;
78903;SDS011;68291;49.602;8.722;2023-07-31T04:24:33;5.03;;;2.60;;
78903;SDS011;68291;49.602;8.722;2023-07-31T04:27:07;6.07;;;2.83;;
78903;SDS011;68291;49.602;8.722;2023-07-31T04:33:28;4.80;;;2.40;;
78903;SDS011;68291;49.602;8.722;2023-07-31T04:36:25;3.80;;;2.30;;
78903;SDS011;68291;49.602;8.722;2023-07-31T04:39:09;4.33;;;2.30;;
78903;SDS011;68291;49.602;8.722;2023-07-31T04:41:53;5.70;;;2.50;;
78903;SDS011;68291;49.602;8.722;2023-07-31T04:44:24;6.83;;;2.20;;
78903;SDS011;68291;49.602;8.722;2023-07-31T04:47:28;3.33;;;2.00;;
78903;SDS011;68291;49.602;8.722;2023-07-31T04:50:16;4.33;;;2.40;;
78903;SDS011;68291;49.602;8.722;2023-07-31T04:53:02;7.27;;;2.70;;
78903;SDS011;68291;49.602;8.722;2023-07-31T04:55:49;3.50;;;2.30;;
78903;SDS011;68291;49.602;8.722;2023-07-31T04:58:21;5.97;;;2.73;;
78903;SDS011;68291;49.602;8.722;2023-07-31T05:01:17;6.47;;;2.40;;
78903;SDS011;68291;49.602;8.722;2023-07-31T05:07:48;4.17;;;2.57;;
78903;SDS011;68291;49.602;8.722;2023-07-31T05:10:24;4.77;;;2.50;;
78903;SDS011;68291;49.602;8.722;2023-07-31T05:13:08;5.00;;;2.30;;
78903;SDS011;68291;49.602;8.722;2023-07-31T05:15:41;5.27;;;2.57;;
78903;SDS011;68291;49.602;8.722;2023-07-31T05:18:22;7.00;;;2.40;;
78903;SDS011;68291;49.602;8.722;2023-07-31T05:21:31;4.97;;;2.40;;
78903;SDS011;68291;49.602;8.722;2023-07-31T05:24:29;5.57;;;2.40;;
78903;SDS011;68291;49.602;8.722;2023-07-31T05:27:09;4.57;;;2.33;;
78903;SDS011;68291;49.602;8.722;2023-07-31T05:29:56;4.07;;;2.30;;
78903;SDS011;68291;49.602;8.722;2023-07-31T05:32:42;4.43;;;2.60;;
78903;SDS011;68291;49.602;8.722;2023-07-31T05:35:16;5.23;;;2.80;;
78903;SDS011;68291;49.602;8.722;2023-07-31T05:38:09;5.37;;;2.57;;
78903;SDS011;68291;49.602;8.722;2023-07-31T05:40:41;5.83;;;2.70;;
78903;SDS011;68291;49.602;8.722;2023-07-31T05:43:37;3.57;;;2.40;;
78903;SDS011;68291;49.602;8.722;2023-07-31T05:46:32;5.10;;;2.60;;
78903;SDS011;68291;49.602;8.722;2023-07-31T05:49:30;5.63;;;2.47;;
78903;SDS011;68291;49.602;8.722;2023-07-31T05:52:21;5.63;;;2.53;;
78903;SDS011;68291;49.602;8.722;2023-07-31T05:55:18;4.37;;;2.50;;
78903;SDS011;68291;49.602;8.722;2023-07-31T05:58:03;5.03;;;2.33;;
78903;SDS011;68291;49.602;8.722;2023-07-31T06:00:46;5.87;;;2.77;;
78903;SDS011;68291;49.602;8.722;2023-07-31T06:03:25;5.30;;;2.70;;
78903;SDS011;68291;49.602;8.722;2023-07-31T06:06:02;3.63;;;2.33;;
78903;SDS011;68291;49.602;8.722;2023-07-31T06:08:41;4.67;;;2.50;;
78903;SDS011;68291;49.602;8.722;2023-07-31T06:14:25;3.27;;;2.20;;
78903;SDS011;68291;49.602;8.722;2023-07-31T06:17:16;4.97;;;2.77;;
78903;SDS011;68291;49.602;8.722;2023-07-31T06:20:12;6.37;;;3.00;;
78903;SDS011;68291;49.602;8.722;2023-07-31T06:22:53;7.73;;;2.50;;
78903;SDS011;68291;49.602;8.722;2023-07-31T06:25:44;5.67;;;2.73;;
78903;SDS011;68291;49.602;8.722;2023-07-31T06:28:35;5.47;;;2.30;;
78903;SDS011;68291;49.602;8.722;2023-07-31T06:31:28;4.07;;;2.33;;
78903;SDS011;68291;49.602;8.722;2023-07-31T06:34:02;5.87;;;2.80;;
78903;SDS011;68291;49.602;8.722;2023-07-31T06:36:34;5.47;;;2.67;;
78903;SDS011;68291;49.602;8.722;2023-07-31T06:39:15;5.33;;;2.90;;
78903;SDS011;68291;49.602;8.722;2023-07-31T06:41:45;3.53;;;2.20;;
78903;SDS011;68291;49.602;8.722;2023-07-31T06:44:26;6.30;;;2.60;;
78903;SDS011;68291;49.602;8.722;2023-07-31T06:47:01;3.83;;;2.50;;
78903;SDS011;68291;49.602;8.722;2023-07-31T06:49:51;6.87;;;2.67;;
78903;SDS011;68291;49.602;8.722;2023-07-31T06:52:31;4.97;;;2.40;;
78903;SDS011;68291;49.602;8.722;2023-07-31T06:55:16;5.30;;;2.60;;
78903;SDS011;68291;49.602;8.722;2023-07-31T06:57:52;3.77;;;2.40;;
78903;SDS011;68291;49.602;8.722;2023-07-31T07:00:31;6.10;;;2.93;;
78903;SDS011;68291;49.602;8.722;2023-07-31T07:03:08;5.47;;;2.60;;
78903;SDS011;68291;49.602;8.722;2023-07-31T07:05:48;5.70;;;2.73;;
78903;SDS011;68291;49.602;8.722;2023-07-31T07:08:42;6.50;;;2.80;;
78903;SDS011;68291;49.602;8.722;2023-07-31T07:11:31;4.97;;;2.63;;
78903;SDS011;68291;49.602;8.722;2023-07-31T07:14:12;8.60;;;2.30;;
78903;SDS011;68291;49.602;8.722;2023-07-31T07:20:12;4.53;;;2.40;;
78903;SDS011;68291;49.602;8.722;2023-07-31T07:23:00;6.03;;;2.43;;
78903;SDS011;68291;49.602;8.722;2023-07-31T07:25:40;3.97;;;2.43;;
78903;SDS011;68291;49.602;8.722;2023-07-31T07:28:29;3.80;;;2.43;;
78903;SDS011;68291;49.602;8.722;2023-07-31T07:31:17;4.87;;;2.43;;
78903;SDS011;68291;49.602;8.722;2023-07-31T07:37:09;4.87;;;2.40;;
78903;SDS011;68291;49.602;8.722;2023-07-31T07:39:55;3.67;;;2.50;;
78903;SDS011;68291;49.602;8.722;2023-07-31T07:42:28;5.70;;;2.77;;
78903;SDS011;68291;49.602;8.722;2023-07-31T07:45:01;3.70;;;2.60;;
78903;SDS011;68291;49.602;8.722;2023-07-31T07:47:51;4.00;;;2.40;;
78903;SDS011;68291;49.602;8.722;2023-07-31T07:50:30;5.33;;;2.60;;
78903;SDS011;68291;49.602;8.722;2023-07-31T07:53:19;3.97;;;2.33;;
78903;SDS011;68291;49.602;8.722;2023-07-31T07:56:07;4.17;;;2.33;;
78903;SDS011;68291;49.602;8.722;2023-07-31T07:59:01;7.67;;;2.80;;
78903;SDS011;68291;49.602;8.722;2023-07-31T08:01:55;5.40;;;2.57;;
78903;SDS011;68291;49.602;8.722;2023-07-31T08:04:51;4.93;;;2.40;;
78903;SDS011;68291;49.602;8.722;2023-07-31T08:07:40;5.40;;;2.43;;
78903;SDS011;68291;49.602;8.722;2023-07-31T08:10:12;6.60;;;2.77;;
78903;SDS011;68291;49.602;8.722;2023-07-31T08:12:50;3.40;;;2.23;;
78903;SDS011;68291;49.602;8.722;2023-07-31T08:15:33;4.47;;;2.60;;
78903;SDS011;68291;49.602;8.722;2023-07-31T08:18:05;6.13;;;2.27;;
78903;SDS011;68291;49.602;8.722;2023-07-31T08:20:37;4.47;;;2.63;;
78903;SDS011;68291;49.602;8.722;2023-07-31T08:26:19;5.43;;;2.93;;
78903;SDS011;68291;49.602;8.722;2023-07-31T08:29:18;4.23;;;2.33;;
78903;SDS011;68291;49.602;8.722;2023-07-31T08:32:17;4.07;;;2.57;;
78903;SDS011;68291;49.602;8.722;2023-07-31T08:35:08;4.80;;;2.40;;
78903;SDS011;68291;49.602;8.722;2023-07-31T08:37:50;4.23;;;2.47;;
78903;SDS011;68291;49.602;8.722;2023-07-31T08:40:39;4.77;;;2.70;;
78903;SDS011;68291;49.602;8.722;2023-07-31T08:43:13;4.10;;;2.60;;
78903;SDS011;68291;49.602;8.722;2023-07-31T08:46:03;7.43;;;2.30;;
78903;SDS011;68291;49.602;8.722;2023-07-31T08:48:45;5.10;;;2.47;;
78903;SDS011;68291;49.602;8.722;2023-07-31T08:51:26;5.50;;;2.80;;
78903;SDS011;68291;49.602;8.722;2023-07-31T08:54:21;3.73;;;2.50;;
78903;SDS011;68291;49.602;8.722;2023-07-31T08:57:19;5.47;;;2.40;;
78903;SDS011;68291;49.602;8.722;2023-07-31T09:00:10;4.13;;;2.57;;
78903;SDS011;68291;49.602;8.722;2023-07-31T09:02:54;5.77;;;3.30;;
78903;SDS011;68291;49.602;8.722;2023-07-31T09:05:48;4.37;;;2.57;;
78903;SDS011;68291;49.602;8.722;2023-07-31T09:08:38;4.47;;;2.57;;
78903;SDS011;68291;49.602;8.722;2023-07-31T09:11:21;6.60;;;3.03;;
78903;SDS011;68291;49.602;8.722;2023-07-31T09:14:19;5.23;;;2.50;;
78903;SDS011;68291;49.602;8.722;2023-07-31T09:17:04;5.43;;;2.60;;
78903;SDS011;68291;49.602;8.722;2023-07-31T09:19:54;6.07;;;2.90;;
78903;SDS011;68291;49.602;8.722;2023-07-31T09:22:38;4.60;;;2.60;;
78903;SDS011;68291;49.602;8.722;2023-07-31T09:25:24;4.93;;;2.63;;
78903;SDS011;68291;49.602;8.722;2023-07-31T09:28:00;5.50;;;2.93;;
78903;SDS011;68291;49.602;8.722;2023-07-31T09:30:47;5.40;;;2.80;;
78903;SDS011;68291;49.602;8.722;2023-07-31T09:33:53;6.30;;;2.90;;
78903;SDS011;68291;49.602;8.722;2023-07-31T09:36:43;4.00;;;2.57;;
78903;SDS011;68291;49.602;8.722;2023-07-31T09:39:45;4.57;;;2.37;;
78903;SDS011;68291;49.602;8.722;2023-07-31T09:42:34;4.50;;;2.53;;
78903;SDS011;68291;49.602;8.722;2023-07-31T09:45:33;4.80;;;2.70;;
78903;SDS011;68291;49.602;8.722;2023-07-31T09:48:25;4.93;;;3.00;;
78903;SDS011;68291;49.602;8.722;2023-07-31T09:51:12;5.30;;;2.77;;
78903;SDS011;68291;49.602;8.722;2023-07-31T09:53:52;3.30;;;2.43;;
78903;SDS011;68291;49.602;8.722;2023-07-31T09:56:31;4.33;;;2.63;;
78903;SDS011;68291;49.602;8.722;2023-07-31T09:59:17;4.43;;;2.97;;
78903;SDS011;68291;49.602;8.722;2023-07-31T10:02:06;7.03;;;2.87;;
78903;SDS011;68291;49.602;8.722;2023-07-31T10:05:13;4.30;;;2.50;;
78903;SDS011;68291;49.602;8.722;2023-07-31T10:07:48;6.23;;;2.90;;
78903;SDS011;68291;49.602;8.722;2023-07-31T10:10:29;7.57;;;3.00;;
78903;SDS011;68291;49.602;8.722;2023-07-31T10:13:15;4.93;;;2.70;;
78903;SDS011;68291;49.602;8.722;2023-07-31T10:16:06;5.30;;;3.30;;
78903;SDS011;68291;49.602;8.722;2023-07-31T10:19:03;5.03;;;2.87;;
78903;SDS011;68291;49.602;8.722;2023-07-31T10:21:53;5.87;;;3.00;;
78903;SDS011;68291;49.602;8.722;2023-07-31T10:24:40;3.63;;;2.80;;
78903;SDS011;68291;49.602;8.722;2023-07-31T10:27:22;7.43;;;3.20;;
78903;SDS011;68291;49.602;8.722;2023-07-31T10:30:12;7.70;;;3.20;;
78903;SDS011;68291;49.602;8.722;2023-07-31T10:33:07;4.73;;;2.93;;
78903;SDS011;68291;49.602;8.722;2023-07-31T10:35:50;9.03;;;3.47;;
78903;SDS011;68291;49.602;8.722;2023-07-31T10:38:49;4.47;;;2.70;;
78903;SDS011;68291;49.602;8.722;2023-07-31T10:41:36;6.33;;;3.27;;
78903;SDS011;68291;49.602;8.722;2023-07-31T10:44:19;6.37;;;3.13;;
78903;SDS011;68291;49.602;8.722;2023-07-31T10:47:02;4.93;;;2.80;;
78903;SDS011;68291;49.602;8.722;2023-07-31T10:50:17;5.87;;;2.93;;
78903;SDS011;68291;49.602;8.722;2023-07-31T10:52:57;5.67;;;3.07;;
78903;SDS011;68291;49.602;8.722;2023-07-31T10:55:39;4.20;;;2.80;;
78903;SDS011;68291;49.602;8.722;2023-07-31T10:58:20;6.00;;;3.17;;
78903;SDS011;68291;49.602;8.722;2023-07-31T11:01:09;6.03;;;3.20;;
78903;SDS011;68291;49.602;8.722;2023-07-31T11:04:10;5.90;;;3.00;;
78903;SDS011;68291;49.602;8.722;2023-07-31T11:06:55;6.07;;;3.07;;
78903;SDS011;68291;49.602;8.722;2023-07-31T11:09:29;4.67;;;3.10;;
78903;SDS011;68291;49.602;8.722;2023-07-31T11:12:12;4.37;;;2.90;;
78903;SDS011;68291;49.602;8.722;2023-07-31T11:14:54;5.60;;;3.33;;
78903;SDS011;68291;49.602;8.722;2023-07-31T11:17:49;5.07;;;2.70;;
78903;SDS011;68291;49.602;8.722;2023-07-31T11:20:42;6.33;;;3.13;;
78903;SDS011;68291;49.602;8.722;2023-07-31T11:23:37;7.00;;;3.10;;
78903;SDS011;68291;49.602;8.722;2023-07-31T11:26:26;5.47;;;3.03;;
78903;SDS011;68291;49.602;8.722;2023-07-31T11:29:26;4.30;;;3.00;;
78903;SDS011;68291;49.602;8.722;2023-07-31T11:32:15;6.37;;;3.40;;
78903;SDS011;68291;49.602;8.722;2023-07-31T11:35:07;6.27;;;2.83;;
78903;SDS011;68291;49.602;8.722;2023-07-31T11:37:53;6.53;;;3.00;;
78903;SDS011;68291;49.602;8.722;2023-07-31T11:40:25;3.73;;;2.70;;
78903;SDS011;68291;49.602;8.722;2023-07-31T11:43:06;5.33;;;2.90;;
78903;SDS011;68291;49.602;8.722;2023-07-31T11:45:47;3.70;;;2.73;;
78903;SDS011;68291;49.602;8.722;2023-07-31T11:48:21;5.13;;;2.93;;
78903;SDS011;68291;49.602;8.722;2023-07-31T11:51:08;6.43;;;2.93;;
78903;SDS011;68291;49.602;8.722;2023-07-31T11:53:51;7.10;;;3.03;;
78903;SDS011;68291;49.602;8.722;2023-07-31T11:56:46;4.70;;;2.70;;
78903;SDS011;68291;49.602;8.722;2023-07-31T11:59:37;7.53;;;2.97;;
78903;SDS011;68291;49.602;8.722;2023-07-31T12:02:33;5.37;;;2.90;;
78903;SDS011;68291;49.602;8.722;2023-07-31T12:05:29;4.80;;;3.20;;
78903;SDS011;68291;49.602;8.722;2023-07-31T12:08:25;5.17;;;2.93;;
78903;SDS011;68291;49.602;8.722;2023-07-31T12:11:05;7.03;;;2.87;;
78903;SDS011;68291;49.602;8.722;2023-07-31T12:13:51;7.60;;;3.27;;
78903;SDS011;68291;49.602;8.722;2023-07-31T12:16:22;4.03;;;2.47;;
78903;SDS011;68291;49.602;8.722;2023-07-31T12:19:17;5.47;;;3.07;;
78903;SDS011;68291;49.602;8.722;2023-07-31T12:21:57;4.77;;;2.77;;
78903;SDS011;68291;49.602;8.722;2023-07-31T12:24:45;4.97;;;2.60;;
78903;SDS011;68291;49.602;8.722;2023-07-31T12:27:33;5.13;;;2.63;;
78903;SDS011;68291;49.602;8.722;2023-07-31T12:30:31;6.13;;;3.00;;
78903;SDS011;68291;49.602;8.722;2023-07-31T12:33:15;6.33;;;2.97;;
78903;SDS011;68291;49.602;8.722;2023-07-31T12:36:02;6.87;;;3.20;;
78903;SDS011;68291;49.602;8.722;2023-07-31T12:38:50;5.50;;;2.73;;
78903;SDS011;68291;49.602;8.722;2023-07-31T12:41:30;5.93;;;3.00;;
78903;SDS011;68291;49.602;8.722;2023-07-31T12:44:11;5.50;;;2.97;;
78903;SDS011;68291;49.602;8.722;2023-07-31T12:47:07;5.87;;;2.73;;
78903;SDS011;68291;49.602;8.722;2023-07-31T12:49:43;6.13;;;2.87;;
78903;SDS011;68291;49.602;8.722;2023-07-31T12:52:19;7.03;;;3.07;;
78903;SDS011;68291;49.602;8.722;2023-07-31T12:54:59;6.13;;;3.00;;
78903;SDS011;68291;49.602;8.722;2023-07-31T12:58:00;7.87;;;3.10;;
78903;SDS011;68291;49.602;8.722;2023-07-31T13:00:39;6.13;;;3.23;;
78903;SDS011;68291;49.602;8.722;2023-07-31T13:03:10;4.17;;;2.67;;
78903;SDS011;68291;49.602;8.722;2023-07-31T13:05:42;4.53;;;3.00;;
78903;SDS011;68291;49.602;8.722;2023-07-31T13:08:31;4.40;;;2.63;;
78903;SDS011;68291;49.602;8.722;2023-07-31T13:11:12;5.30;;;3.00;;
78903;SDS011;68291;49.602;8.722;2023-07-31T13:13:50;8.07;;;2.83;;
78903;SDS011;68291;49.602;8.722;2023-07-31T13:16:22;6.20;;;2.83;;
78903;SDS011;68291;49.602;8.722;2023-07-31T13:19:04;4.17;;;2.80;;
78903;SDS011;68291;49.602;8.722;2023-07-31T13:22:06;9.13;;;3.10;;
78903;SDS011;68291;49.602;8.722;2023-07-31T13:28:03;4.70;;;2.60;;
78903;SDS011;68291;49.602;8.722;2023-07-31T13:30:52;5.13;;;3.10;;
78903;SDS011;68291;49.602;8.722;2023-07-31T13:33:43;5.93;;;2.87;;
78903;SDS011;68291;49.602;8.722;2023-07-31T13:36:28;4.83;;;3.10;;
78903;SDS011;68291;49.602;8.722;2023-07-31T13:39:11;4.17;;;2.70;;
78903;SDS011;68291;49.602;8.722;2023-07-31T13:41:48;4.73;;;2.60;;
78903;SDS011;68291;49.602;8.722;2023-07-31T13:44:26;4.83;;;2.90;;
78903;SDS011;68291;49.602;8.722;2023-07-31T13:47:14;6.87;;;2.60;;
78903;SDS011;68291;49.602;8.722;2023-07-31T13:49:55;4.30;;;2.57;;
78903;SDS011;68291;49.602;8.722;2023-07-31T13:52:39;6.27;;;2.90;;
78903;SDS011;68291;49.602;8.722;2023-07-31T13:55:19;4.67;;;2.90;;
78903;SDS011;68291;49.602;8.722;2023-07-31T13:58:10;4.40;;;2.70;;
78903;SDS011;68291;49.602;8.722;2023-07-31T14:01:06;4.47;;;2.60;;
78903;SDS011;68291;49.602;8.722;2023-07-31T14:04:02;7.00;;;3.27;;
78903;SDS011;68291;49.602;8.722;2023-07-31T14:06:50;5.07;;;2.80;;
78903;SDS011;68291;49.602;8.722;2023-07-31T14:09:29;4.60;;;2.80;;
78903;SDS011;68291;49.602;8.722;2023-07-31T14:12:11;4.47;;;2.97;;
78903;SDS011;68291;49.602;8.722;2023-07-31T14:15:06;4.93;;;2.90;;
78903;SDS011;68291;49.602;8.722;2023-07-31T14:18:02;4.17;;;2.73;;
78903;SDS011;68291;49.602;8.722;2023-07-31T14:20:59;5.50;;;3.00;;
78903;SDS011;68291;49.602;8.722;2023-07-31T14:23:42;6.13;;;2.97;;
78903;SDS011;68291;49.602;8.722;2023-07-31T14:26:23;4.07;;;2.40;;
78903;SDS011;68291;49.602;8.722;2023-07-31T14:29:19;4.93;;;3.03;;
78903;SDS011;68291;49.602;8.722;2023-07-31T14:32:09;5.63;;;2.70;;
78903;SDS011;68291;49.602;8.722;2023-07-31T14:34:47;4.50;;;2.80;;
78903;SDS011;68291;49.602;8.722;2023-07-31T14:37:18;4.57;;;2.60;;
78903;SDS011;68291;49.602;8.722;2023-07-31T14:40:10;5.33;;;2.63;;
78903;SDS011;68291;49.602;8.722;2023-07-31T14:43:05;4.77;;;2.60;;
78903;SDS011;68291;49.602;8.722;2023-07-31T14:45:54;5.37;;;2.97;;
78903;SDS011;68291;49.602;8.722;2023-07-31T14:51:39;4.43;;;2.70;;
78903;SDS011;68291;49.602;8.722;2023-07-31T14:54:25;8.23;;;3.13;;
78903;SDS011;68291;49.602;8.722;2023-07-31T14:57:08;5.53;;;2.37;;
78903;SDS011;68291;49.602;8.722;2023-07-31T14:59:59;4.40;;;2.77;;
78903;SDS011;68291;49.602;8.722;2023-07-31T15:02:42;6.03;;;2.83;;
78903;SDS011;68291;49.602;8.722;2023-07-31T15:05:35;5.60;;;2.83;;
78903;SDS011;68291;49.602;8.722;2023-07-31T15:08:22;3.47;;;2.47;;
78903;SDS011;68291;49.602;8.722;2023-07-31T15:10:56;4.77;;;2.57;;
78903;SDS011;68291;49.602;8.722;2023-07-31T15:13:34;6.87;;;3.37;;
78903;SDS011;68291;49.602;8.722;2023-07-31T15:16:06;5.97;;;2.97;;
78903;SDS011;68291;49.602;8.722;2023-07-31T15:18:45;4.97;;;2.80;;
78903;SDS011;68291;49.602;8.722;2023-07-31T15:24:26;6.07;;;2.83;;
78903;SDS011;68291;49.602;8.722;2023-07-31T15:27:13;7.47;;;3.33;;
78903;SDS011;68291;49.602;8.722;2023-07-31T15:29:55;6.93;;;2.83;;
78903;SDS011;68291;49.602;8.722;2023-07-31T15:32:47;5.97;;;3.07;;
78903;SDS011;68291;49.602;8.722;2023-07-31T15:35:38;4.57;;;2.93;;
78903;SDS011;68291;49.602;8.722;2023-07-31T15:38:36;4.47;;;2.63;;
78903;SDS011;68291;49.602;8.722;2023-07-31T15:41:07;4.57;;;2.83;;
78903;SDS011;68291;49.602;8.722;2023-07-31T15:44:12;4.80;;;2.73;;
78903;SDS011;68291;49.602;8.722;2023-07-31T15:46:58;3.57;;;2.63;;
78903;SDS011;68291;49.602;8.722;2023-07-31T15:49:39;4.43;;;2.87;;
78903;SDS011;68291;49.602;8.722;2023-07-31T15:52:28;6.47;;;2.80;;
78903;SDS011;68291;49.602;8.722;2023-07-31T15:55:08;4.17;;;2.47;;
78903;SDS011;68291;49.602;8.722;2023-07-31T15:57:55;3.00;;;2.27;;
78903;SDS011;68291;49.602;8.722;2023-07-31T16:00:34;3.40;;;2.40;;
78903;SDS011;68291;49.602;8.722;2023-07-31T16:03:14;3.40;;;2.50;;
78903;SDS011;68291;49.602;8.722;2023-07-31T16:06:05;3.53;;;2.47;;
78903;SDS011;68291;49.602;8.722;2023-07-31T16:09:00;6.87;;;2.73;;
78903;SDS011;68291;49.602;8.722;2023-07-31T16:12:06;3.60;;;2.57;;
78903;SDS011;68291;49.602;8.722;2023-07-31T16:14:49;5.57;;;2.63;;
78903;SDS011;68291;49.602;8.722;2023-07-31T16:17:28;5.77;;;2.57;;
78903;SDS011;68291;49.602;8.722;2023-07-31T16:20:11;4.80;;;2.97;;
78903;SDS011;68291;49.602;8.722;2023-07-31T16:22:56;4.87;;;2.73;;
78903;SDS011;68291;49.602;8.722;2023-07-31T16:25:43;3.40;;;2.57;;
78903;SDS011;68291;49.602;8.722;2023-07-31T16:28:35;5.80;;;2.67;;
78903;SDS011;68291;49.602;8.722;2023-07-31T16:31:18;5.83;;;2.80;;
78903;SDS011;68291;49.602;8.722;2023-07-31T16:34:03;5.23;;;2.73;;
78903;SDS011;68291;49.602;8.722;2023-07-31T16:36:39;3.30;;;2.37;;
78903;SDS011;68291;49.602;8.722;2023-07-31T16:39:35;4.43;;;3.00;;
78903;SDS011;68291;49.602;8.722;2023-07-31T16:42:21;5.00;;;2.80;;
78903;SDS011;68291;49.602;8.722;2023-07-31T16:45:30;6.50;;;3.30;;
78903;SDS011;68291;49.602;8.722;2023-07-31T16:48:11;3.47;;;2.80;;
78903;SDS011;68291;49.602;8.722;2023-07-31T16:50:49;4.40;;;3.17;;
78903;SDS011;68291;49.602;8.722;2023-07-31T16:53:29;5.27;;;3.20;;
78903;SDS011;68291;49.602;8.722;2023-07-31T16:56:07;4.90;;;3.00;;
78903;SDS011;68291;49.602;8.722;2023-07-31T16:58:55;5.10;;;2.77;;
78903;SDS011;68291;49.602;8.722;2023-07-31T17:01:51;3.93;;;2.80;;
78903;SDS011;68291;49.602;8.722;2023-07-31T17:04:37;5.50;;;2.97;;
78903;SDS011;68291;49.602;8.722;2023-07-31T17:07:13;6.50;;;3.10;;
78903;SDS011;68291;49.602;8.722;2023-07-31T17:09:49;6.97;;;3.33;;
78903;SDS011;68291;49.602;8.722;2023-07-31T17:12:35;6.10;;;3.27;;
78903;SDS011;68291;49.602;8.722;2023-07-31T17:15:07;4.30;;;2.90;;
78903;SDS011;68291;49.602;8.722;2023-07-31T17:20:33;6.43;;;3.03;;
78903;SDS011;68291;49.602;8.722;2023-07-31T17:23:17;7.37;;;3.23;;
78903;SDS011;68291;49.602;8.722;2023-07-31T17:25:53;6.57;;;3.10;;
78903;SDS011;68291;49.602;8.722;2023-07-31T17:28:38;7.20;;;3.27;;